sensor_id;sensor_type;location;lat;lon;timestamp;P1;durP1;ratioP1;P2;durP2;ratioP2
19089;SDS011;9677;50.656;13.064;2023-07-24T00:02:09;9.73;;;8.73;;
19089;SDS011;9677;50.656;13.064;2023-07-24T00:04:38;9.07;;;8.27;;
19089;SDS011;9677;50.656;13.064;2023-07-24T00:07:06;9.20;;;8.30;;
19089;SDS011;9677;50.656;13.064;2023-07-24T00:09:35;9.90;;;8.90;;
19089;SDS011;9677;50.656;13.064;2023-07-24T00:12:03;9.80;;;8.80;;
19089;SDS011;9677;50.656;13.064;2023-07-24T00:14:33;9.27;;;8.37;;
19089;SDS011;9677;50.656;13.064;2023-07-24T00:17:01;9.97;;;8.97;;
19089;SDS011;9677;50.656;13.064;2023-07-24T00:19:30;9.37;;;8.47;;
19089;SDS011;9677;50.656;13.064;2023-07-24T00:21:59;9.73;;;8.73;;
19089;SDS011;9677;50.656;13.064;2023-07-24T00:24:29;9.50;;;8.60;;
19089;SDS011;9677;50.656;13.064;2023-07-24T00:26:58;9.37;;;8.47;;
19089;SDS011;9677;50.656;13.064;2023-07-24T00:29:26;9.43;;;8.53;;
19089;SDS011;9677;50.656;13.064;2023-07-24T00:31:54;9.53;;;8.63;;
19089;SDS011;9677;50.656;13.064;2023-07-24T00:34:22;10.30;;;8.63;;
19089;SDS011;9677;50.656;13.064;2023-07-24T00:36:54;9.40;;;8.50;;
19089;SDS011;9677;50.656;13.064;2023-07-24T00:39:24;9.43;;;8.53;;
19089;SDS011;9677;50.656;13.064;2023-07-24T00:41:56;9.60;;;8.70;;
19089;SDS011;9677;50.656;13.064;2023-07-24T00:44:24;9.63;;;8.73;;
19089;SDS011;9677;50.656;13.064;2023-07-24T00:46:53;9.33;;;8.43;;
19089;SDS011;9677;50.656;13.064;2023-07-24T00:49:22;9.57;;;8.67;;
19089;SDS011;9677;50.656;13.064;2023-07-24T00:51:50;9.40;;;8.50;;
19089;SDS011;9677;50.656;13.064;2023-07-24T00:54:19;9.60;;;8.70;;
19089;SDS011;9677;50.656;13.064;2023-07-24T00:56:51;9.20;;;8.30;;
19089;SDS011;9677;50.656;13.064;2023-07-24T00:59:19;9.90;;;8.80;;
19089;SDS011;9677;50.656;13.064;2023-07-24T01:01:48;9.40;;;8.50;;
19089;SDS011;9677;50.656;13.064;2023-07-24T01:04:17;9.77;;;8.77;;
19089;SDS011;9677;50.656;13.064;2023-07-24T01:06:45;9.33;;;8.43;;
19089;SDS011;9677;50.656;13.064;2023-07-24T01:09:14;9.30;;;8.40;;
19089;SDS011;9677;50.656;13.064;2023-07-24T01:11:43;9.23;;;8.43;;
19089;SDS011;9677;50.656;13.064;2023-07-24T01:14:19;9.60;;;8.70;;
19089;SDS011;9677;50.656;13.064;2023-07-24T01:16:50;9.27;;;8.40;;
19089;SDS011;9677;50.656;13.064;2023-07-24T01:19:29;9.70;;;8.70;;
19089;SDS011;9677;50.656;13.064;2023-07-24T01:22:09;9.20;;;8.30;;
19089;SDS011;9677;50.656;13.064;2023-07-24T01:24:48;9.30;;;8.40;;
19089;SDS011;9677;50.656;13.064;2023-07-24T01:27:29;9.70;;;8.80;;
19089;SDS011;9677;50.656;13.064;2023-07-24T01:29:57;9.30;;;8.40;;
19089;SDS011;9677;50.656;13.064;2023-07-24T01:32:26;9.83;;;8.87;;
19089;SDS011;9677;50.656;13.064;2023-07-24T01:34:54;9.50;;;8.60;;
19089;SDS011;9677;50.656;13.064;2023-07-24T01:37:22;9.50;;;8.50;;
19089;SDS011;9677;50.656;13.064;2023-07-24T01:39:53;10.10;;;9.10;;
19089;SDS011;9677;50.656;13.064;2023-07-24T01:42:22;9.40;;;8.50;;
19089;SDS011;9677;50.656;13.064;2023-07-24T01:44:53;9.17;;;8.30;;
19089;SDS011;9677;50.656;13.064;2023-07-24T01:47:22;9.70;;;8.70;;
19089;SDS011;9677;50.656;13.064;2023-07-24T01:49:50;9.13;;;8.33;;
19089;SDS011;9677;50.656;13.064;2023-07-24T01:52:19;9.87;;;8.87;;
19089;SDS011;9677;50.656;13.064;2023-07-24T01:54:47;9.90;;;9.00;;
19089;SDS011;9677;50.656;13.064;2023-07-24T01:57:15;9.50;;;8.60;;
19089;SDS011;9677;50.656;13.064;2023-07-24T01:59:44;9.43;;;8.53;;
19089;SDS011;9677;50.656;13.064;2023-07-24T02:02:13;9.40;;;8.50;;
19089;SDS011;9677;50.656;13.064;2023-07-24T02:04:41;9.67;;;8.77;;
19089;SDS011;9677;50.656;13.064;2023-07-24T02:07:10;9.60;;;8.70;;
19089;SDS011;9677;50.656;13.064;2023-07-24T02:09:38;9.90;;;8.90;;
19089;SDS011;9677;50.656;13.064;2023-07-24T02:12:06;9.40;;;8.50;;
19089;SDS011;9677;50.656;13.064;2023-07-24T02:14:35;9.70;;;8.70;;
19089;SDS011;9677;50.656;13.064;2023-07-24T02:17:03;9.73;;;8.73;;
19089;SDS011;9677;50.656;13.064;2023-07-24T02:19:33;9.80;;;8.80;;
19089;SDS011;9677;50.656;13.064;2023-07-24T02:22:01;9.63;;;8.73;;
19089;SDS011;9677;50.656;13.064;2023-07-24T02:24:34;9.60;;;8.70;;
19089;SDS011;9677;50.656;13.064;2023-07-24T02:27:02;9.70;;;8.80;;
19089;SDS011;9677;50.656;13.064;2023-07-24T02:29:32;9.20;;;8.40;;
19089;SDS011;9677;50.656;13.064;2023-07-24T02:32:02;9.40;;;8.50;;
19089;SDS011;9677;50.656;13.064;2023-07-24T02:34:32;9.47;;;8.57;;
19089;SDS011;9677;50.656;13.064;2023-07-24T02:37:00;9.87;;;8.87;;
19089;SDS011;9677;50.656;13.064;2023-07-24T02:39:28;9.40;;;8.50;;
19089;SDS011;9677;50.656;13.064;2023-07-24T02:41:56;9.70;;;8.70;;
19089;SDS011;9677;50.656;13.064;2023-07-24T02:44:25;9.53;;;8.63;;
19089;SDS011;9677;50.656;13.064;2023-07-24T02:46:53;9.37;;;8.47;;
19089;SDS011;9677;50.656;13.064;2023-07-24T02:49:21;9.43;;;8.53;;
19089;SDS011;9677;50.656;13.064;2023-07-24T02:51:51;9.50;;;8.60;;
19089;SDS011;9677;50.656;13.064;2023-07-24T02:54:19;9.80;;;8.87;;
19089;SDS011;9677;50.656;13.064;2023-07-24T02:56:47;9.47;;;8.57;;
19089;SDS011;9677;50.656;13.064;2023-07-24T02:59:15;9.60;;;8.70;;
19089;SDS011;9677;50.656;13.064;2023-07-24T03:01:44;9.50;;;8.60;;
19089;SDS011;9677;50.656;13.064;2023-07-24T03:04:12;9.33;;;8.43;;
19089;SDS011;9677;50.656;13.064;2023-07-24T03:06:40;9.73;;;8.83;;
19089;SDS011;9677;50.656;13.064;2023-07-24T03:09:09;9.70;;;8.80;;
19089;SDS011;9677;50.656;13.064;2023-07-24T03:11:37;10.10;;;9.10;;
19089;SDS011;9677;50.656;13.064;2023-07-24T03:14:06;9.50;;;8.60;;
19089;SDS011;9677;50.656;13.064;2023-07-24T03:16:34;9.63;;;8.73;;
19089;SDS011;9677;50.656;13.064;2023-07-24T03:19:02;9.70;;;8.77;;
19089;SDS011;9677;50.656;13.064;2023-07-24T03:21:31;9.67;;;8.77;;
19089;SDS011;9677;50.656;13.064;2023-07-24T03:24:00;9.67;;;8.67;;
19089;SDS011;9677;50.656;13.064;2023-07-24T03:26:29;9.67;;;8.77;;
19089;SDS011;9677;50.656;13.064;2023-07-24T03:28:58;9.70;;;8.80;;
19089;SDS011;9677;50.656;13.064;2023-07-24T03:31:27;9.70;;;8.80;;
19089;SDS011;9677;50.656;13.064;2023-07-24T03:33:55;9.70;;;8.80;;
19089;SDS011;9677;50.656;13.064;2023-07-24T03:36:23;9.90;;;8.90;;
19089;SDS011;9677;50.656;13.064;2023-07-24T03:38:52;9.80;;;8.90;;
19089;SDS011;9677;50.656;13.064;2023-07-24T03:41:20;10.10;;;9.10;;
19089;SDS011;9677;50.656;13.064;2023-07-24T03:43:50;9.60;;;8.70;;
19089;SDS011;9677;50.656;13.064;2023-07-24T03:46:18;9.80;;;8.80;;
19089;SDS011;9677;50.656;13.064;2023-07-24T03:48:46;9.77;;;8.80;;
19089;SDS011;9677;50.656;13.064;2023-07-24T03:51:16;10.07;;;9.10;;
19089;SDS011;9677;50.656;13.064;2023-07-24T03:53:44;9.70;;;8.80;;
19089;SDS011;9677;50.656;13.064;2023-07-24T03:56:12;9.60;;;8.70;;
19089;SDS011;9677;50.656;13.064;2023-07-24T03:58:40;9.90;;;9.00;;
19089;SDS011;9677;50.656;13.064;2023-07-24T04:01:10;10.20;;;9.20;;
19089;SDS011;9677;50.656;13.064;2023-07-24T04:03:38;10.00;;;9.00;;
19089;SDS011;9677;50.656;13.064;2023-07-24T04:06:06;10.10;;;9.10;;
19089;SDS011;9677;50.656;13.064;2023-07-24T04:08:36;9.60;;;8.70;;
19089;SDS011;9677;50.656;13.064;2023-07-24T04:11:04;9.60;;;8.70;;
19089;SDS011;9677;50.656;13.064;2023-07-24T04:13:32;9.80;;;8.80;;
19089;SDS011;9677;50.656;13.064;2023-07-24T04:16:00;9.00;;;8.20;;
19089;SDS011;9677;50.656;13.064;2023-07-24T04:18:30;10.00;;;9.00;;
19089;SDS011;9677;50.656;13.064;2023-07-24T04:20:58;10.10;;;9.10;;
19089;SDS011;9677;50.656;13.064;2023-07-24T04:23:26;9.97;;;9.00;;
19089;SDS011;9677;50.656;13.064;2023-07-24T04:25:54;9.90;;;9.00;;
19089;SDS011;9677;50.656;13.064;2023-07-24T04:28:22;10.10;;;9.10;;
19089;SDS011;9677;50.656;13.064;2023-07-24T04:30:50;9.67;;;8.77;;
19089;SDS011;9677;50.656;13.064;2023-07-24T04:33:19;9.80;;;8.90;;
19089;SDS011;9677;50.656;13.064;2023-07-24T04:35:48;9.67;;;8.77;;
19089;SDS011;9677;50.656;13.064;2023-07-24T04:38:16;9.80;;;8.80;;
19089;SDS011;9677;50.656;13.064;2023-07-24T04:40:45;9.83;;;8.87;;
19089;SDS011;9677;50.656;13.064;2023-07-24T04:43:13;9.80;;;8.90;;
19089;SDS011;9677;50.656;13.064;2023-07-24T04:45:41;9.83;;;8.83;;
19089;SDS011;9677;50.656;13.064;2023-07-24T04:48:09;9.70;;;8.80;;
19089;SDS011;9677;50.656;13.064;2023-07-24T04:50:37;10.10;;;9.10;;
19089;SDS011;9677;50.656;13.064;2023-07-24T04:53:07;12.50;;;8.83;;
19089;SDS011;9677;50.656;13.064;2023-07-24T04:55:35;9.83;;;8.83;;
19089;SDS011;9677;50.656;13.064;2023-07-24T04:58:03;9.87;;;8.93;;
19089;SDS011;9677;50.656;13.064;2023-07-24T05:00:31;10.00;;;9.00;;
19089;SDS011;9677;50.656;13.064;2023-07-24T05:02:59;9.83;;;8.90;;
19089;SDS011;9677;50.656;13.064;2023-07-24T05:05:27;10.03;;;9.03;;
19089;SDS011;9677;50.656;13.064;2023-07-24T05:07:57;9.53;;;8.63;;
19089;SDS011;9677;50.656;13.064;2023-07-24T05:10:27;10.40;;;9.23;;
19089;SDS011;9677;50.656;13.064;2023-07-24T05:12:55;9.70;;;8.80;;
19089;SDS011;9677;50.656;13.064;2023-07-24T05:15:23;9.70;;;8.80;;
19089;SDS011;9677;50.656;13.064;2023-07-24T05:17:51;9.70;;;8.80;;
19089;SDS011;9677;50.656;13.064;2023-07-24T05:20:19;10.00;;;9.00;;
19089;SDS011;9677;50.656;13.064;2023-07-24T05:22:48;10.00;;;9.00;;
19089;SDS011;9677;50.656;13.064;2023-07-24T05:25:16;9.93;;;8.93;;
19089;SDS011;9677;50.656;13.064;2023-07-24T05:27:45;9.50;;;8.60;;
19089;SDS011;9677;50.656;13.064;2023-07-24T05:30:14;10.10;;;9.07;;
19089;SDS011;9677;50.656;13.064;2023-07-24T05:32:42;10.10;;;9.10;;
19089;SDS011;9677;50.656;13.064;2023-07-24T05:35:10;10.20;;;9.10;;
19089;SDS011;9677;50.656;13.064;2023-07-24T05:37:38;10.10;;;9.10;;
19089;SDS011;9677;50.656;13.064;2023-07-24T05:40:07;10.27;;;9.27;;
19089;SDS011;9677;50.656;13.064;2023-07-24T05:42:36;10.30;;;9.30;;
19089;SDS011;9677;50.656;13.064;2023-07-24T05:45:09;9.80;;;8.80;;
19089;SDS011;9677;50.656;13.064;2023-07-24T05:47:38;9.90;;;8.90;;
19089;SDS011;9677;50.656;13.064;2023-07-24T05:50:06;10.30;;;9.30;;
19089;SDS011;9677;50.656;13.064;2023-07-24T05:52:35;9.90;;;8.90;;
19089;SDS011;9677;50.656;13.064;2023-07-24T05:55:03;9.90;;;8.90;;
19089;SDS011;9677;50.656;13.064;2023-07-24T05:57:32;9.87;;;8.87;;
19089;SDS011;9677;50.656;13.064;2023-07-24T06:00:00;10.33;;;9.23;;
19089;SDS011;9677;50.656;13.064;2023-07-24T06:02:38;9.80;;;8.90;;
19089;SDS011;9677;50.656;13.064;2023-07-24T06:05:06;9.80;;;8.80;;
19089;SDS011;9677;50.656;13.064;2023-07-24T06:07:35;9.87;;;8.87;;
19089;SDS011;9677;50.656;13.064;2023-07-24T06:10:03;9.90;;;8.90;;
19089;SDS011;9677;50.656;13.064;2023-07-24T06:12:32;9.83;;;8.93;;
19089;SDS011;9677;50.656;13.064;2023-07-24T06:15:00;10.00;;;9.00;;
19089;SDS011;9677;50.656;13.064;2023-07-24T06:17:29;9.87;;;8.87;;
19089;SDS011;9677;50.656;13.064;2023-07-24T06:19:59;10.13;;;9.03;;
19089;SDS011;9677;50.656;13.064;2023-07-24T06:22:27;9.63;;;8.67;;
19089;SDS011;9677;50.656;13.064;2023-07-24T06:24:55;10.17;;;9.17;;
19089;SDS011;9677;50.656;13.064;2023-07-24T06:27:23;9.53;;;8.63;;
19089;SDS011;9677;50.656;13.064;2023-07-24T06:29:51;9.83;;;8.90;;
19089;SDS011;9677;50.656;13.064;2023-07-24T06:32:30;10.23;;;9.23;;
19089;SDS011;9677;50.656;13.064;2023-07-24T06:35:00;9.97;;;8.97;;
19089;SDS011;9677;50.656;13.064;2023-07-24T06:37:28;10.00;;;9.00;;
19089;SDS011;9677;50.656;13.064;2023-07-24T06:39:56;10.37;;;9.20;;
19089;SDS011;9677;50.656;13.064;2023-07-24T06:42:24;9.97;;;8.97;;
19089;SDS011;9677;50.656;13.064;2023-07-24T06:44:52;10.57;;;9.47;;
19089;SDS011;9677;50.656;13.064;2023-07-24T06:47:20;10.23;;;9.23;;
19089;SDS011;9677;50.656;13.064;2023-07-24T06:49:49;10.27;;;9.27;;
19089;SDS011;9677;50.656;13.064;2023-07-24T06:52:18;10.30;;;9.03;;
19089;SDS011;9677;50.656;13.064;2023-07-24T06:54:46;10.30;;;9.30;;
19089;SDS011;9677;50.656;13.064;2023-07-24T06:57:15;12.13;;;9.50;;
19089;SDS011;9677;50.656;13.064;2023-07-24T06:59:43;9.97;;;8.97;;
19089;SDS011;9677;50.656;13.064;2023-07-24T07:02:11;11.40;;;9.40;;
19089;SDS011;9677;50.656;13.064;2023-07-24T07:04:39;10.40;;;9.40;;
19089;SDS011;9677;50.656;13.064;2023-07-24T07:07:07;10.30;;;9.23;;
19089;SDS011;9677;50.656;13.064;2023-07-24T07:09:37;10.37;;;9.27;;
19089;SDS011;9677;50.656;13.064;2023-07-24T07:12:06;10.30;;;9.20;;
19089;SDS011;9677;50.656;13.064;2023-07-24T07:14:35;9.90;;;8.70;;
19089;SDS011;9677;50.656;13.064;2023-07-24T07:17:03;10.40;;;9.37;;
19089;SDS011;9677;50.656;13.064;2023-07-24T07:19:31;10.60;;;9.53;;
19089;SDS011;9677;50.656;13.064;2023-07-24T07:21:59;10.27;;;9.17;;
19089;SDS011;9677;50.656;13.064;2023-07-24T07:24:28;10.17;;;9.07;;
19089;SDS011;9677;50.656;13.064;2023-07-24T07:26:57;11.03;;;9.93;;
19089;SDS011;9677;50.656;13.064;2023-07-24T07:29:25;10.80;;;9.70;;
19089;SDS011;9677;50.656;13.064;2023-07-24T07:31:54;11.30;;;10.10;;
19089;SDS011;9677;50.656;13.064;2023-07-24T07:34:22;10.87;;;9.77;;
19089;SDS011;9677;50.656;13.064;2023-07-24T07:36:50;11.00;;;9.80;;
19089;SDS011;9677;50.656;13.064;2023-07-24T07:39:18;11.37;;;10.17;;
19089;SDS011;9677;50.656;13.064;2023-07-24T07:41:46;11.43;;;10.17;;
19089;SDS011;9677;50.656;13.064;2023-07-24T07:44:16;12.67;;;10.00;;
19089;SDS011;9677;50.656;13.064;2023-07-24T07:46:44;12.20;;;10.90;;
19089;SDS011;9677;50.656;13.064;2023-07-24T07:49:12;11.97;;;10.37;;
19089;SDS011;9677;50.656;13.064;2023-07-24T07:51:41;12.30;;;10.40;;
19089;SDS011;9677;50.656;13.064;2023-07-24T07:54:09;12.67;;;10.50;;
19089;SDS011;9677;50.656;13.064;2023-07-24T07:56:37;12.80;;;10.80;;
19089;SDS011;9677;50.656;13.064;2023-07-24T07:59:05;13.23;;;11.20;;
19089;SDS011;9677;50.656;13.064;2023-07-24T08:01:35;12.27;;;10.97;;
19089;SDS011;9677;50.656;13.064;2023-07-24T08:04:05;11.60;;;10.37;;
19089;SDS011;9677;50.656;13.064;2023-07-24T08:06:33;14.23;;;10.40;;
19089;SDS011;9677;50.656;13.064;2023-07-24T08:09:01;12.20;;;10.30;;
19089;SDS011;9677;50.656;13.064;2023-07-24T08:11:30;11.43;;;10.23;;
19089;SDS011;9677;50.656;13.064;2023-07-24T08:13:58;11.30;;;10.10;;
19089;SDS011;9677;50.656;13.064;2023-07-24T08:16:26;10.83;;;9.73;;
19089;SDS011;9677;50.656;13.064;2023-07-24T08:18:56;10.40;;;9.30;;
19089;SDS011;9677;50.656;13.064;2023-07-24T08:21:24;10.53;;;9.43;;
19089;SDS011;9677;50.656;13.064;2023-07-24T08:23:53;11.07;;;9.87;;
19089;SDS011;9677;50.656;13.064;2023-07-24T08:26:21;10.50;;;9.40;;
19089;SDS011;9677;50.656;13.064;2023-07-24T08:28:50;11.20;;;10.00;;
19089;SDS011;9677;50.656;13.064;2023-07-24T08:31:19;10.80;;;9.70;;
19089;SDS011;9677;50.656;13.064;2023-07-24T08:33:47;11.40;;;10.20;;
19089;SDS011;9677;50.656;13.064;2023-07-24T08:36:17;10.80;;;9.70;;
19089;SDS011;9677;50.656;13.064;2023-07-24T08:38:45;11.10;;;9.90;;
19089;SDS011;9677;50.656;13.064;2023-07-24T08:41:14;11.13;;;10.00;;
19089;SDS011;9677;50.656;13.064;2023-07-24T08:43:42;10.90;;;9.80;;
19089;SDS011;9677;50.656;13.064;2023-07-24T08:46:12;12.60;;;10.47;;
19089;SDS011;9677;50.656;13.064;2023-07-24T08:48:40;11.17;;;9.97;;
19089;SDS011;9677;50.656;13.064;2023-07-24T08:51:10;11.70;;;10.13;;
19089;SDS011;9677;50.656;13.064;2023-07-24T08:53:42;11.73;;;10.53;;
19089;SDS011;9677;50.656;13.064;2023-07-24T08:56:11;10.90;;;9.80;;
19089;SDS011;9677;50.656;13.064;2023-07-24T08:58:41;10.67;;;9.57;;
19089;SDS011;9677;50.656;13.064;2023-07-24T09:01:09;10.20;;;9.20;;
19089;SDS011;9677;50.656;13.064;2023-07-24T09:03:38;11.60;;;9.70;;
19089;SDS011;9677;50.656;13.064;2023-07-24T09:06:06;11.13;;;9.97;;
19089;SDS011;9677;50.656;13.064;2023-07-24T09:08:35;11.40;;;9.87;;
19089;SDS011;9677;50.656;13.064;2023-07-24T09:11:07;10.80;;;9.70;;
19089;SDS011;9677;50.656;13.064;2023-07-24T09:13:37;11.23;;;9.97;;
19089;SDS011;9677;50.656;13.064;2023-07-24T09:16:20;11.67;;;10.30;;
19089;SDS011;9677;50.656;13.064;2023-07-24T09:18:49;10.70;;;9.60;;
19089;SDS011;9677;50.656;13.064;2023-07-24T09:21:27;10.40;;;9.30;;
19089;SDS011;9677;50.656;13.064;2023-07-24T09:23:56;11.10;;;9.97;;
19089;SDS011;9677;50.656;13.064;2023-07-24T09:26:26;10.77;;;9.67;;
19089;SDS011;9677;50.656;13.064;2023-07-24T09:28:55;11.27;;;10.10;;
19089;SDS011;9677;50.656;13.064;2023-07-24T09:31:33;10.47;;;9.37;;
19089;SDS011;9677;50.656;13.064;2023-07-24T09:34:02;10.93;;;9.73;;
19089;SDS011;9677;50.656;13.064;2023-07-24T09:36:36;10.60;;;9.50;;
19089;SDS011;9677;50.656;13.064;2023-07-24T09:39:05;10.93;;;9.83;;
19089;SDS011;9677;50.656;13.064;2023-07-24T09:41:38;11.33;;;10.13;;
19089;SDS011;9677;50.656;13.064;2023-07-24T09:44:07;10.60;;;9.50;;
19089;SDS011;9677;50.656;13.064;2023-07-24T09:46:35;11.10;;;10.00;;
19089;SDS011;9677;50.656;13.064;2023-07-24T09:49:13;10.90;;;9.70;;
19089;SDS011;9677;50.656;13.064;2023-07-24T09:51:42;11.37;;;10.17;;
19089;SDS011;9677;50.656;13.064;2023-07-24T09:54:15;10.33;;;9.30;;
19089;SDS011;9677;50.656;13.064;2023-07-24T09:56:53;10.70;;;9.60;;
19089;SDS011;9677;50.656;13.064;2023-07-24T09:59:40;10.70;;;9.60;;
19089;SDS011;9677;50.656;13.064;2023-07-24T10:02:10;12.63;;;10.13;;
19089;SDS011;9677;50.656;13.064;2023-07-24T10:04:40;11.50;;;10.00;;
19089;SDS011;9677;50.656;13.064;2023-07-24T10:07:09;10.73;;;9.67;;
19089;SDS011;9677;50.656;13.064;2023-07-24T10:09:38;10.60;;;9.50;;
19089;SDS011;9677;50.656;13.064;2023-07-24T10:12:09;11.03;;;9.93;;
19089;SDS011;9677;50.656;13.064;2023-07-24T10:14:37;11.03;;;9.80;;
19089;SDS011;9677;50.656;13.064;2023-07-24T10:17:05;11.30;;;10.10;;
19089;SDS011;9677;50.656;13.064;2023-07-24T10:19:38;12.43;;;10.40;;
19089;SDS011;9677;50.656;13.064;2023-07-24T10:22:09;11.60;;;10.27;;
19089;SDS011;9677;50.656;13.064;2023-07-24T10:24:44;11.40;;;10.03;;
19089;SDS011;9677;50.656;13.064;2023-07-24T10:27:14;11.70;;;10.13;;
19089;SDS011;9677;50.656;13.064;2023-07-24T10:29:42;11.93;;;9.60;;
19089;SDS011;9677;50.656;13.064;2023-07-24T10:32:16;10.87;;;9.77;;
19089;SDS011;9677;50.656;13.064;2023-07-24T10:34:45;11.27;;;10.00;;
19089;SDS011;9677;50.656;13.064;2023-07-24T10:37:34;11.90;;;10.60;;
19089;SDS011;9677;50.656;13.064;2023-07-24T10:40:04;11.77;;;10.57;;
19089;SDS011;9677;50.656;13.064;2023-07-24T10:42:35;11.40;;;10.17;;
19089;SDS011;9677;50.656;13.064;2023-07-24T10:45:07;12.03;;;10.40;;
19089;SDS011;9677;50.656;13.064;2023-07-24T10:47:36;11.30;;;10.13;;
19089;SDS011;9677;50.656;13.064;2023-07-24T10:50:05;11.70;;;10.50;;
19089;SDS011;9677;50.656;13.064;2023-07-24T10:52:34;11.73;;;10.53;;
19089;SDS011;9677;50.656;13.064;2023-07-24T10:55:03;11.93;;;10.57;;
19089;SDS011;9677;50.656;13.064;2023-07-24T10:57:32;13.10;;;10.60;;
19089;SDS011;9677;50.656;13.064;2023-07-24T11:00:02;12.30;;;11.00;;
19089;SDS011;9677;50.656;13.064;2023-07-24T11:02:31;12.07;;;10.80;;
19089;SDS011;9677;50.656;13.064;2023-07-24T11:04:59;15.30;;;10.40;;
19089;SDS011;9677;50.656;13.064;2023-07-24T11:07:31;12.10;;;10.80;;
19089;SDS011;9677;50.656;13.064;2023-07-24T11:10:00;11.33;;;10.10;;
19089;SDS011;9677;50.656;13.064;2023-07-24T11:12:29;12.47;;;10.73;;
19089;SDS011;9677;50.656;13.064;2023-07-24T11:14:59;12.10;;;10.80;;
19089;SDS011;9677;50.656;13.064;2023-07-24T11:17:34;12.47;;;10.67;;
19089;SDS011;9677;50.656;13.064;2023-07-24T11:20:07;11.30;;;10.13;;
19089;SDS011;9677;50.656;13.064;2023-07-24T11:22:41;12.80;;;10.90;;
19089;SDS011;9677;50.656;13.064;2023-07-24T11:25:11;11.80;;;10.30;;
19089;SDS011;9677;50.656;13.064;2023-07-24T11:27:39;10.60;;;9.60;;
19089;SDS011;9677;50.656;13.064;2023-07-24T11:30:12;12.20;;;10.90;;
19089;SDS011;9677;50.656;13.064;2023-07-24T11:32:40;14.03;;;10.13;;
19089;SDS011;9677;50.656;13.064;2023-07-24T11:35:09;12.07;;;10.50;;
19089;SDS011;9677;50.656;13.064;2023-07-24T11:37:38;11.33;;;10.13;;
19089;SDS011;9677;50.656;13.064;2023-07-24T11:40:07;14.67;;;10.03;;
19089;SDS011;9677;50.656;13.064;2023-07-24T11:42:39;12.37;;;10.43;;
19089;SDS011;9677;50.656;13.064;2023-07-24T11:45:11;10.90;;;9.80;;
19089;SDS011;9677;50.656;13.064;2023-07-24T11:47:43;12.37;;;10.97;;
19089;SDS011;9677;50.656;13.064;2023-07-24T11:50:13;12.30;;;11.00;;
19089;SDS011;9677;50.656;13.064;2023-07-24T11:52:44;12.10;;;10.80;;
19089;SDS011;9677;50.656;13.064;2023-07-24T11:55:15;11.80;;;10.60;;
19089;SDS011;9677;50.656;13.064;2023-07-24T11:57:54;11.70;;;10.13;;
19089;SDS011;9677;50.656;13.064;2023-07-24T12:00:25;12.50;;;10.33;;
19089;SDS011;9677;50.656;13.064;2023-07-24T12:02:58;14.30;;;11.00;;
19089;SDS011;9677;50.656;13.064;2023-07-24T12:05:38;11.43;;;10.23;;
19089;SDS011;9677;50.656;13.064;2023-07-24T12:08:07;11.83;;;10.60;;
19089;SDS011;9677;50.656;13.064;2023-07-24T12:10:36;12.30;;;10.90;;
19089;SDS011;9677;50.656;13.064;2023-07-24T12:13:06;12.50;;;10.47;;
19089;SDS011;9677;50.656;13.064;2023-07-24T12:15:36;12.63;;;10.53;;
19089;SDS011;9677;50.656;13.064;2023-07-24T12:18:05;11.83;;;10.20;;
19089;SDS011;9677;50.656;13.064;2023-07-24T12:20:33;11.40;;;10.17;;
19089;SDS011;9677;50.656;13.064;2023-07-24T12:23:02;12.50;;;10.00;;
19089;SDS011;9677;50.656;13.064;2023-07-24T12:25:30;10.20;;;9.20;;
19089;SDS011;9677;50.656;13.064;2023-07-24T12:27:58;10.30;;;9.20;;
19089;SDS011;9677;50.656;13.064;2023-07-24T12:30:27;9.97;;;8.97;;
19089;SDS011;9677;50.656;13.064;2023-07-24T12:32:56;10.20;;;9.10;;
19089;SDS011;9677;50.656;13.064;2023-07-24T12:35:24;10.60;;;9.50;;
19089;SDS011;9677;50.656;13.064;2023-07-24T12:37:52;10.60;;;9.50;;
19089;SDS011;9677;50.656;13.064;2023-07-24T12:40:21;13.53;;;9.17;;
19089;SDS011;9677;50.656;13.064;2023-07-24T12:42:49;10.07;;;9.07;;
19089;SDS011;9677;50.656;13.064;2023-07-24T12:45:17;10.17;;;9.17;;
19089;SDS011;9677;50.656;13.064;2023-07-24T12:47:45;10.03;;;9.03;;
19089;SDS011;9677;50.656;13.064;2023-07-24T12:50:15;10.10;;;9.10;;
19089;SDS011;9677;50.656;13.064;2023-07-24T12:52:44;10.37;;;8.93;;
19089;SDS011;9677;50.656;13.064;2023-07-24T12:55:12;10.23;;;8.97;;
19089;SDS011;9677;50.656;13.064;2023-07-24T12:57:41;9.90;;;8.90;;
19089;SDS011;9677;50.656;13.064;2023-07-24T13:00:09;9.50;;;8.60;;
19089;SDS011;9677;50.656;13.064;2023-07-24T13:02:38;9.80;;;8.80;;
19089;SDS011;9677;50.656;13.064;2023-07-24T13:05:07;9.57;;;8.57;;
19089;SDS011;9677;50.656;13.064;2023-07-24T13:07:37;9.40;;;8.50;;
19089;SDS011;9677;50.656;13.064;2023-07-24T13:10:06;9.40;;;8.50;;
19089;SDS011;9677;50.656;13.064;2023-07-24T13:12:36;10.33;;;8.50;;
19089;SDS011;9677;50.656;13.064;2023-07-24T13:15:04;9.20;;;8.30;;
19089;SDS011;9677;50.656;13.064;2023-07-24T13:17:34;9.20;;;8.30;;
19089;SDS011;9677;50.656;13.064;2023-07-24T13:20:03;9.20;;;8.30;;
19089;SDS011;9677;50.656;13.064;2023-07-24T13:22:32;8.93;;;8.10;;
19089;SDS011;9677;50.656;13.064;2023-07-24T13:25:02;9.30;;;8.40;;
19089;SDS011;9677;50.656;13.064;2023-07-24T13:27:31;8.90;;;8.00;;
19089;SDS011;9677;50.656;13.064;2023-07-24T13:29:59;8.87;;;8.07;;
19089;SDS011;9677;50.656;13.064;2023-07-24T13:32:27;9.37;;;8.47;;
19089;SDS011;9677;50.656;13.064;2023-07-24T13:34:56;8.83;;;8.03;;
19089;SDS011;9677;50.656;13.064;2023-07-24T13:37:26;8.83;;;8.00;;
19089;SDS011;9677;50.656;13.064;2023-07-24T13:39:54;9.43;;;8.30;;
19089;SDS011;9677;50.656;13.064;2023-07-24T13:42:24;9.23;;;8.33;;
19089;SDS011;9677;50.656;13.064;2023-07-24T13:44:52;9.37;;;8.43;;
19089;SDS011;9677;50.656;13.064;2023-07-24T13:47:20;9.60;;;8.60;;
19089;SDS011;9677;50.656;13.064;2023-07-24T13:49:48;9.33;;;8.43;;
19089;SDS011;9677;50.656;13.064;2023-07-24T13:52:16;9.13;;;8.23;;
19089;SDS011;9677;50.656;13.064;2023-07-24T13:54:45;9.10;;;8.20;;
19089;SDS011;9677;50.656;13.064;2023-07-24T13:57:13;9.70;;;8.70;;
19089;SDS011;9677;50.656;13.064;2023-07-24T13:59:42;9.60;;;8.60;;
19089;SDS011;9677;50.656;13.064;2023-07-24T14:02:10;9.93;;;8.60;;
19089;SDS011;9677;50.656;13.064;2023-07-24T14:04:39;9.80;;;8.80;;
19089;SDS011;9677;50.656;13.064;2023-07-24T14:07:08;9.40;;;8.50;;
19089;SDS011;9677;50.656;13.064;2023-07-24T14:09:36;10.33;;;9.30;;
19089;SDS011;9677;50.656;13.064;2023-07-24T14:12:07;10.23;;;9.20;;
19089;SDS011;9677;50.656;13.064;2023-07-24T14:14:35;9.90;;;8.90;;
19089;SDS011;9677;50.656;13.064;2023-07-24T14:17:05;10.90;;;9.80;;
19089;SDS011;9677;50.656;13.064;2023-07-24T14:19:33;10.30;;;9.30;;
19089;SDS011;9677;50.656;13.064;2023-07-24T14:22:01;11.00;;;9.90;;
19089;SDS011;9677;50.656;13.064;2023-07-24T14:24:29;10.70;;;9.60;;
19089;SDS011;9677;50.656;13.064;2023-07-24T14:26:58;11.97;;;10.30;;
19089;SDS011;9677;50.656;13.064;2023-07-24T14:29:26;11.57;;;10.37;;
19089;SDS011;9677;50.656;13.064;2023-07-24T14:31:54;10.90;;;9.80;;
19089;SDS011;9677;50.656;13.064;2023-07-24T14:34:23;11.47;;;10.27;;
19089;SDS011;9677;50.656;13.064;2023-07-24T14:36:52;11.00;;;9.90;;
19089;SDS011;9677;50.656;13.064;2023-07-24T14:39:20;11.80;;;10.50;;
19089;SDS011;9677;50.656;13.064;2023-07-24T14:41:48;12.50;;;11.20;;
19089;SDS011;9677;50.656;13.064;2023-07-24T14:44:16;11.60;;;10.40;;
19089;SDS011;9677;50.656;13.064;2023-07-24T14:46:45;12.07;;;10.87;;
19089;SDS011;9677;50.656;13.064;2023-07-24T14:49:13;11.97;;;10.70;;
19089;SDS011;9677;50.656;13.064;2023-07-24T14:51:42;11.90;;;10.60;;